Saltar para o conteúdo principal

Madeira, S. Jorge, Santana

ID 1210960 · 32.8345, -16.9062 mapa

Última leitura · 2026-05-09 18:00 (Europe/Lisbon)

Temperatura
16.4 °C
Humidade
74 %
Pressão
1,013.2 hPa
Precipitação
0.0 mm
Radiação
2,396 W/m²
Velocidade do vento
17.6 km/h
Direcção do vento
W · Oeste

Histórico de 24 horas

Hora (Europe/Lisbon) Temperatura Humidade Pressão Chuva Vento Direcção
2026-05-09 18:00 16.4 °C 74 % 1,013.2 0.0 mm 17.6 km/h W
2026-05-09 17:00 16.3 °C 71 % 1,012.9 0.0 mm 19.8 km/h W
2026-05-09 16:00 16.0 °C 79 % 1,012.9 0.0 mm 18.4 km/h W
2026-05-09 15:00 16.4 °C 72 % 1,012.5 0.0 mm 27.4 km/h W
2026-05-09 14:00 16.6 °C 72 % 1,012.5 0.0 mm 29.2 km/h W
2026-05-09 13:00 16.4 °C 71 % 1,012.5 0.0 mm 24.8 km/h W
2026-05-09 12:00 15.7 °C 76 % 1,012.8 0.0 mm 31.3 km/h NW
2026-05-09 11:00 14.0 °C 85 % 1,012.8 0.0 mm 13.7 km/h W
2026-05-09 10:00 15.3 °C 75 % 1,012.1 0.0 mm 25.2 km/h NW
2026-05-09 09:00 14.5 °C 77 % 1,011.5 0.0 mm 22.3 km/h W
2026-05-09 08:00 14.4 °C 73 % 1,010.8 0.0 mm 11.5 km/h W
2026-05-09 07:00 14.3 °C 78 % 1,010.3 0.0 mm 15.5 km/h W
2026-05-09 06:00 14.5 °C 77 % 1,010.1 0.0 mm 19.4 km/h W
2026-05-09 05:00 14.1 °C 83 % 1,010.1 0.0 mm 20.2 km/h W
2026-05-09 04:00 14.0 °C 84 % 1,010.2 0.1 mm 17.3 km/h W
2026-05-09 03:00 14.8 °C 80 % 1,009.9 0.0 mm 20.5 km/h W
2026-05-09 02:00 14.8 °C 80 % 1,009.9 0.0 mm 32.4 km/h W
2026-05-09 01:00 14.9 °C 82 % 1,010.2 0.0 mm 27.7 km/h NW
2026-05-09 00:00 15.1 °C 80 % 1,010.0 0.0 mm 30.6 km/h W
2026-05-08 23:00 15.2 °C 77 % 1,009.1 0.0 mm 39.2 km/h W
2026-05-08 22:00 15.5 °C 74 % 1,007.7 0.0 mm 52.6 km/h NW
2026-05-08 21:00 15.6 °C 73 % 1,007.0 0.0 mm 45.4 km/h W
2026-05-08 20:00 15.5 °C 71 % 1,006.7 0.0 mm 33.8 km/h W
2026-05-08 19:00 17.4 °C 55 % 1,006.2 0.0 mm 32.0 km/h W